Time;durP1;ratioP1;P1;durP2;ratioP2;P2;SDS_P1;SDS_P2;PMS_P1;PMS_P2;Temp;Humidity;BMP_temperature;BMP_pressure;BME280_temperature;BME280_humidity;BME280_pressure;Samples;Min_cycle;Max_cycle;Signal;HPM_P1;HPM_P2
2023/04/26 04:22:32;;;;;;;15.05;7.30;;;;;;;2.82;100.00;100385.88;5089480;28;20393;-66
2023/04/26 04:24:58;;;;;;;21.80;8.65;;;;;;;2.80;100.00;100382.50;5105168;28;20036;-65
2023/04/26 04:27:27;;;;;;;27.88;8.30;;;;;;;2.81;100.00;100384.22;5071190;28;20038;-66
2023/04/26 04:29:54;;;;;;;34.75;9.48;;;;;;;2.86;100.00;100382.84;5088078;28;20028;-67
2023/04/26 04:32:22;;;;;;;25.40;8.30;;;;;;;2.76;100.00;100387.19;5088136;28;20043;-66
2023/04/26 04:34:47;;;;;;;;;;;;;;;2.75;100.00;100385.50;5088502;28;20127;-66
2023/04/26 04:37:13;;;;;;;22.52;7.47;;;;;;;2.72;100.00;100388.38;5087732;28;19954;-67
2023/04/26 04:39:38;;;;;;;25.17;9.43;;;;;;;2.72;100.00;100388.38;5088013;28;20124;-65
2023/04/26 04:42:04;;;;;;;25.92;8.27;;;;;;;2.65;100.00;100388.00;5087785;28;20063;-66
2023/04/26 04:44:30;;;;;;;23.63;8.07;;;;;;;2.71;100.00;100394.59;5087795;28;20121;-66
2023/04/26 04:46:57;;;;;;;20.25;8.43;;;;;;;2.74;100.00;100402.25;5087565;28;20040;-66
2023/04/26 04:49:23;;;;;;;28.40;8.25;;;;;;;2.77;100.00;100402.00;5087677;28;20069;-66
2023/04/26 04:51:50;;;;;;;19.88;7.18;;;;;;;2.80;100.00;100398.28;5087737;28;20036;-67
2023/04/26 04:54:17;;;;;;;20.15;8.38;;;;;;;2.81;100.00;100400.81;5087708;28;20554;-65
2023/04/26 04:56:45;;;;;;;18.48;7.18;;;;;;;2.83;100.00;100408.59;5087426;28;20044;-65
2023/04/26 04:59:12;;;;;;;25.17;6.95;;;;;;;2.87;100.00;100410.88;5087432;28;20135;-67
2023/04/26 05:01:38;;;;;;;20.10;7.78;;;;;;;2.85;100.00;100410.13;5087503;28;20071;-67
2023/04/26 05:04:07;;;;;;;26.88;6.82;;;;;;;2.84;100.00;100411.09;5087466;28;20475;-67
2023/04/26 05:06:33;;;;;;;22.80;6.95;;;;;;;2.86;100.00;100410.97;5087470;28;20032;-67
2023/04/26 05:09:00;;;;;;;22.02;7.45;;;;;;;2.90;100.00;100415.03;5087128;28;20082;-67
2023/04/26 05:11:26;;;;;;;19.40;7.68;;;;;;;2.97;100.00;100416.25;5088664;28;20036;-65
2023/04/26 05:13:51;;;;;;;17.17;6.88;;;;;;;3.14;100.00;100425.44;5087589;28;20093;-63
2023/04/26 05:16:17;;;;;;;24.35;7.88;;;;;;;3.17;100.00;100419.94;5087190;28;20032;-62
2023/04/26 05:18:42;;;;;;;20.10;7.38;;;;;;;3.22;100.00;100426.50;5086958;28;20040;-63
2023/04/26 05:21:08;;;;;;;16.33;5.75;;;;;;;3.29;100.00;100426.03;5087191;28;20044;-62
2023/04/26 05:23:35;;;;;;;17.50;7.53;;;;;;;3.42;100.00;100427.56;5087109;28;20070;-63
2023/04/26 05:26:04;;;;;;;16.40;6.85;;;;;;;3.58;100.00;100426.31;5086991;28;20044;-63
2023/04/26 05:28:48;;;;;;;15.85;6.90;;;;;;;3.75;100.00;100426.63;5088279;28;20082;-63
2023/04/26 05:31:20;;;;;;;17.48;7.65;;;;;;;3.85;100.00;100433.75;5087185;28;20110;-63
2023/04/26 05:34:06;;;;;;;18.67;7.18;;;;;;;3.97;100.00;100438.88;5073850;28;20501;-64
2023/04/26 05:36:36;;;;;;;13.98;5.45;;;;;;;4.11;100.00;100436.88;5074549;28;20041;-64
2023/04/26 05:39:04;;;;;;;18.08;7.38;;;;;;;4.22;100.00;100437.69;5072982;28;20063;-64
2023/04/26 05:41:30;;;;;;;14.98;6.72;;;;;;;4.35;100.00;100425.13;5073320;28;20020;-64
2023/04/26 05:43:56;;;;;;;10.82;6.15;;;;;;;4.49;100.00;100431.88;5073187;28;20551;-64
2023/04/26 05:46:21;;;;;;;17.15;8.15;;;;;;;4.51;100.00;100429.97;5073251;28;20401;-63
2023/04/26 05:48:47;;;;;;;19.42;8.40;;;;;;;4.61;100.00;100430.00;5073601;28;20056;-64
2023/04/26 05:51:13;;;;;;;20.15;7.93;;;;;;;4.73;100.00;100428.13;5074089;28;20438;-63
2023/04/26 05:53:38;;;;;;;22.00;7.63;;;;;;;4.85;100.00;100441.13;5073090;28;20041;-64
2023/04/26 05:56:04;;;;;;;15.18;6.80;;;;;;;4.98;100.00;100450.63;5056515;28;20122;-63
2023/04/26 05:58:29;;;;;;;17.85;6.97;;;;;;;5.03;100.00;100444.00;5072665;28;20040;-64
2023/04/26 06:00:55;;;;;;;14.60;7.32;;;;;;;5.08;100.00;100441.75;5072944;28;20037;-63
2023/04/26 06:03:21;;;;;;;17.15;8.32;;;;;;;5.23;100.00;100449.34;5072891;28;20044;-62
2023/04/26 06:05:46;;;;;;;19.75;8.50;;;;;;;5.32;100.00;100454.66;5072860;28;20047;-64
2023/04/26 06:08:11;;;;;;;19.13;8.75;;;;;;;5.43;100.00;100451.91;5072523;28;20131;-64
2023/04/26 06:10:37;;;;;;;18.25;9.43;;;;;;;5.53;100.00;100459.84;5073999;28;20111;-63
2023/04/26 06:13:03;;;;;;;22.25;8.82;;;;;;;5.59;100.00;100461.13;5072730;28;20044;-64
2023/04/26 06:15:34;;;;;;;20.73;7.93;;;;;;;5.67;100.00;100463.91;5072741;28;20123;-63
2023/04/26 06:17:59;;;;;;;18.30;8.38;;;;;;;5.79;100.00;100468.09;5072243;28;20569;-64
2023/04/26 06:20:25;;;;;;;18.00;7.25;;;;;;;5.84;100.00;100468.53;5072482;28;20032;-63
2023/04/26 06:22:50;;;;;;;19.38;8.48;;;;;;;5.93;100.00;100470.41;5073838;28;20032;-63
2023/04/26 06:25:16;;;;;;;21.38;8.95;;;;;;;6.05;100.00;100468.44;5072490;28;20033;-64
2023/04/26 06:27:42;;;;;;;22.13;7.90;;;;;;;6.15;100.00;100471.94;5073408;28;20043;-64
2023/04/26 06:30:09;;;;;;;15.77;7.25;;;;;;;6.30;100.00;100455.63;5072334;28;20093;-63
2023/04/26 06:32:40;;;;;;;18.33;6.75;;;;;;;6.34;100.00;100460.50;5072261;28;20033;-64
2023/04/26 06:35:05;;;;;;;16.88;7.82;;;;;;;6.34;100.00;100457.03;5073639;28;21123;-66
2023/04/26 06:37:31;;;;;;;16.33;8.18;;;;;;;6.51;100.00;100451.84;5071906;28;20090;-64
2023/04/26 06:39:57;;;;;;;15.98;6.43;;;;;;;6.56;100.00;100456.72;5072424;28;20067;-63
2023/04/26 06:42:22;;;;;;;14.45;7.25;;;;;;;6.66;100.00;100454.06;5072439;28;20405;-64
2023/04/26 06:45:09;;;;;;;20.05;6.88;;;;;;;6.71;100.00;100457.09;5072101;28;20041;-64
2023/04/26 06:47:35;;;;;;;15.68;7.20;;;;;;;6.72;100.00;100456.13;5071861;28;20033;-64
2023/04/26 06:50:02;;;;;;;11.65;6.95;;;;;;;6.79;100.00;100454.59;5072024;28;20044;-64
2023/04/26 06:52:28;;;;;;;14.00;6.13;;;;;;;6.90;100.00;100456.19;5073129;28;20028;-65
2023/04/26 06:54:54;;;;;;;9.82;6.00;;;;;;;6.91;98.48;100460.50;5073205;28;20048;-64
2023/04/26 06:57:19;;;;;;;15.88;5.88;;;;;;;6.91;96.45;100456.09;5072901;28;20029;-64
2023/04/26 06:59:45;;;;;;;14.32;6.80;;;;;;;7.00;97.79;100454.38;5073051;28;20119;-64
2023/04/26 07:02:10;;;;;;;12.10;5.68;;;;;;;7.06;96.79;100451.97;5073057;28;20033;-63
2023/04/26 07:04:35;;;;;;;15.27;5.47;;;;;;;7.12;94.51;100441.78;5072977;28;20532;-64
2023/04/26 07:07:01;;;;;;;15.07;5.60;;;;;;;7.21;94.04;100441.72;5071313;28;20044;-64
2023/04/26 07:09:27;;;;;;;13.23;5.07;;;;;;;7.22;93.93;100437.25;5072840;28;20040;-64
2023/04/26 07:11:52;;;;;;;24.13;5.55;;;;;;;7.25;93.53;100435.16;5071483;28;20097;-64
2023/04/26 07:14:18;;;;;;;9.48;4.88;;;;;;;7.33;99.08;100435.25;5072818;28;20618;-64
2023/04/26 07:16:43;;;;;;;12.27;5.07;;;;;;;7.44;97.79;100436.88;5072522;28;20135;-62
2023/04/26 07:19:09;;;;;;;13.60;5.43;;;;;;;7.55;95.20;100438.47;5072773;28;20043;-63
2023/04/26 07:21:35;;;;;;;11.75;4.97;;;;;;;7.64;95.04;100437.59;5072518;28;20116;-63
2023/04/26 07:24:01;;;;;;;12.30;5.18;;;;;;;7.64;93.97;100431.44;5072595;28;20472;-63
2023/04/26 07:26:26;;;;;;;15.85;5.90;;;;;;;7.74;92.31;100441.00;5072523;28;20081;-64
2023/04/26 07:28:52;;;;;;;8.48;4.85;;;;;;;7.82;92.53;100434.94;5072218;28;20089;-64
2023/04/26 07:31:18;;;;;;;14.05;5.18;;;;;;;7.97;93.62;100437.91;5072363;28;20040;-64
2023/04/26 07:33:44;;;;;;;10.77;4.63;;;;;;;8.04;91.78;100438.97;5072467;28;20107;-64
2023/04/26 07:36:09;;;;;;;11.30;5.47;;;;;;;8.15;90.36;100441.41;5072289;28;20047;-63
2023/04/26 07:38:35;;;;;;;7.72;4.82;;;;;;;8.28;90.22;100439.19;5072095;28;20040;-64
2023/04/26 07:41:00;;;;;;;12.43;5.25;;;;;;;8.18;88.47;100440.25;5072360;28;20032;-64
2023/04/26 07:43:26;;;;;;;15.07;5.10;;;;;;;8.26;88.55;100438.47;5072255;28;20035;-63
2023/04/26 07:45:52;;;;;;;8.80;4.70;;;;;;;8.32;85.41;100440.53;5072169;28;20042;-64
2023/04/26 07:48:17;;;;;;;6.82;4.43;;;;;;;8.40;84.99;100439.78;5071886;28;20485;-65
2023/04/26 07:50:43;;;;;;;10.00;4.25;;;;;;;8.38;81.66;100439.94;5072099;28;20049;-64
2023/04/26 07:53:09;;;;;;;7.90;4.55;;;;;;;8.45;83.58;100441.97;5072135;28;20064;-59
2023/04/26 07:55:35;;;;;;;9.90;3.90;;;;;;;8.71;83.92;100432.22;5071850;28;20078;-59
2023/04/26 07:58:00;;;;;;;8.05;4.75;;;;;;;8.74;81.01;100439.88;5071780;28;20119;-59
2023/04/26 08:00:25;;;;;;;9.18;4.85;;;;;;;8.80;85.24;100439.25;5072097;28;20151;-59
2023/04/26 08:02:51;;;;;;;13.38;5.03;;;;;;;8.88;82.21;100431.31;5072092;28;20048;-59
2023/04/26 08:05:16;;;;;;;6.88;4.30;;;;;;;8.96;82.52;100435.84;5071909;28;20085;-58
2023/04/26 08:07:42;;;;;;;6.65;4.18;;;;;;;9.09;80.87;100432.75;5071688;28;20128;-59
2023/04/26 08:10:08;;;;;;;7.85;4.03;;;;;;;9.27;81.08;100436.16;5071950;28;20040;-59
2023/04/26 08:12:34;;;;;;;4.93;3.38;;;;;;;9.41;78.51;100437.38;5071902;28;20178;-60
2023/04/26 08:15:00;;;;;;;4.32;3.00;;;;;;;9.43;74.87;100430.06;5072043;28;20564;-60
2023/04/26 08:17:26;;;;;;;9.15;3.15;;;;;;;9.49;72.48;100427.59;5071607;28;20032;-57
2023/04/26 08:19:52;;;;;;;7.18;3.58;;;;;;;9.52;69.23;100431.75;5071866;28;20620;-58
2023/04/26 08:22:17;;;;;;;7.30;3.22;;;;;;;9.49;67.50;100427.59;5071838;28;20047;-59
2023/04/26 08:24:47;;;;;;;4.93;2.92;;;;;;;9.73;68.07;100433.97;5071855;28;20093;-59
2023/04/26 08:27:12;;;;;;;5.65;2.83;;;;;;;9.87;64.94;100443.97;5071398;28;20070;-59
2023/04/26 08:29:38;;;;;;;7.55;2.88;;;;;;;9.87;67.42;100435.97;5071827;28;20558;-59
2023/04/26 08:32:03;;;;;;;7.10;4.18;;;;;;;10.10;64.14;100438.00;5071800;28;20107;-60
2023/04/26 08:34:29;;;;;;;6.93;3.58;;;;;;;10.09;66.06;100439.00;5071672;28;20040;-60
2023/04/26 08:36:54;;;;;;;3.22;2.35;;;;;;;10.07;59.95;100440.00;5071570;28;20374;-57
2023/04/26 08:39:20;;;;;;;6.22;2.88;;;;;;;10.24;58.11;100432.06;5071579;28;20040;-59
2023/04/26 08:41:50;;;;;;;3.55;2.50;;;;;;;10.37;60.38;100427.06;5070541;28;20097;-58
2023/04/26 08:44:22;;;;;;;5.40;2.47;;;;;;;10.43;57.39;100429.06;5071707;28;20041;-59
2023/04/26 08:47:04;;;;;;;5.45;2.83;;;;;;;10.76;57.55;100427.19;5071546;28;20040;-59
2023/04/26 08:49:40;;;;;;;5.85;2.90;;;;;;;10.96;55.26;100422.28;5071649;28;20081;-59
2023/04/26 08:52:11;;;;;;;4.85;2.65;;;;;;;10.86;54.03;100421.66;5071511;28;20048;-58
2023/04/26 08:54:39;;;;;;;4.45;2.28;;;;;;;11.07;54.46;100413.91;5071460;28;20048;-59
2023/04/26 08:57:08;;;;;;;5.35;2.28;;;;;;;11.22;56.36;100415.88;5071282;28;20542;-59
2023/04/26 08:59:36;;;;;;;4.43;2.50;;;;;;;11.38;55.47;100416.63;5071484;28;20036;-59
2023/04/26 09:02:03;;;;;;;2.85;2.45;;;;;;;11.51;55.29;100420.56;5071439;28;20078;-58
2023/04/26 09:04:30;;;;;;;5.47;2.53;;;;;;;11.34;53.11;100417.13;5071475;28;20051;-56
2023/04/26 09:06:59;;;;;;;3.72;2.47;;;;;;;11.49;54.64;100412.72;5071162;28;20051;-60
2023/04/26 09:09:26;;;;;;;5.65;2.20;;;;;;;11.26;53.29;100402.00;5075125;28;20040;-58
2023/04/26 09:11:56;;;;;;;6.07;2.70;;;;;;;11.49;56.42;100407.41;5075015;28;20242;-60
2023/04/26 09:14:23;;;;;;;4.15;1.77;;;;;;;11.78;53.98;100406.72;5075028;28;20294;-59
2023/04/26 09:16:48;;;;;;;8.82;2.55;;;;;;;11.52;53.75;100408.88;5074964;28;20049;-59
2023/04/26 09:19:14;;;;;;;3.67;2.35;;;;;;;11.72;63.64;100412.75;5074724;28;20043;-59
2023/04/26 09:21:45;;;;;;;5.78;2.95;;;;;;;11.79;55.76;100407.53;5074884;28;20120;-59
2023/04/26 09:24:11;;;;;;;3.85;1.90;;;;;;;12.21;51.75;100412.44;5075343;28;20405;-60
2023/04/26 09:26:37;;;;;;;3.20;2.17;;;;;;;12.38;50.52;100408.59;5074812;28;20044;-60
2023/04/26 09:29:16;;;;;;;3.25;1.85;;;;;;;12.20;50.67;100406.28;5074565;28;20033;-59
2023/04/26 09:31:44;;;;;;;5.57;2.47;;;;;;;12.52;55.32;100403.47;5074718;28;20068;-60
2023/04/26 09:34:11;;;;;;;3.53;1.70;;;;;;;12.73;51.70;100396.41;5074622;28;20036;-60
2023/04/26 09:36:55;;;;;;;3.53;1.90;;;;;;;13.16;50.42;100385.03;5074584;28;20056;-59
2023/04/26 09:39:36;;;;;;;3.28;1.77;;;;;;;13.09;50.07;100395.66;5074404;28;20555;-57
2023/04/26 09:42:02;;;;;;;5.57;2.28;;;;;;;13.14;48.19;100393.25;5074683;28;20066;-58
2023/04/26 09:44:30;;;;;;;2.50;2.08;;;;;;;13.38;46.79;100394.00;5074562;28;20036;-59
2023/04/26 09:47:04;;;;;;;5.20;2.10;;;;;;;14.16;46.31;100393.16;5074303;28;20057;-59
2023/04/26 09:49:32;;;;;;;4.60;2.08;;;;;;;14.15;44.34;100396.88;5074322;28;20032;-59
2023/04/26 09:52:05;;;;;;;3.47;2.25;;;;;;;14.35;44.47;100391.66;5074313;28;20123;-59
2023/04/26 09:54:38;;;;;;;2.88;1.90;;;;;;;14.32;42.14;100376.78;5074522;28;20040;-58
2023/04/26 09:57:03;;;;;;;4.20;1.95;;;;;;;14.35;43.60;100389.81;5073967;28;20060;-57
2023/04/26 09:59:42;;;;;;;3.08;1.60;;;;;;;14.81;42.89;100393.88;5074225;28;20483;-58
2023/04/26 10:02:26;;;;;;;2.88;1.77;;;;;;;14.61;44.31;100396.44;5074197;28;20036;-59
2023/04/26 10:04:54;;;;;;;2.97;1.90;;;;;;;14.67;45.09;100384.91;5074244;28;20059;-59
2023/04/26 10:07:21;;;;;;;3.50;1.83;;;;;;;14.87;43.31;100388.53;5073685;28;20033;-59
2023/04/26 10:09:46;;;;;;;3.10;1.50;;;;;;;14.26;42.08;100384.78;5074239;28;20055;-58
2023/04/26 10:12:14;;;;;;;1.48;1.30;;;;;;;14.66;41.75;100383.25;5074056;28;20556;-57
2023/04/26 10:14:41;;;;;;;4.50;1.80;;;;;;;14.93;41.14;100379.72;5074030;28;20112;-58
2023/04/26 10:17:06;;;;;;;3.10;1.65;;;;;;;15.02;40.12;100364.28;5073506;28;20127;-59
2023/04/26 10:19:34;;;;;;;3.35;1.50;;;;;;;15.00;39.29;100369.00;5073858;28;20131;-59
2023/04/26 10:22:05;;;;;;;3.10;1.60;;;;;;;15.39;38.97;100368.34;5073730;28;20032;-59
2023/04/26 10:24:31;;;;;;;2.28;1.35;;;;;;;15.61;38.24;100370.88;5073939;28;20070;-58
2023/04/26 10:26:56;;;;;;;3.33;1.23;;;;;;;15.54;38.21;100370.03;5073451;28;20079;-59
2023/04/26 10:29:54;;;;;;;2.30;1.35;;;;;;;15.67;39.32;100368.25;5073736;28;20108;-57
2023/04/26 10:32:20;;;;;;;2.53;1.63;;;;;;;14.43;40.08;100362.03;5073387;28;20040;-57
2023/04/26 10:35:12;;;;;;;2.53;1.20;;;;;;;14.34;42.57;100369.41;5073581;28;20037;-59
2023/04/26 10:38:02;;;;;;;2.42;1.30;;;;;;;14.28;42.35;100370.19;5073232;28;20068;-58
2023/04/26 10:40:39;;;;;;;2.97;1.38;;;;;;;14.53;41.49;100361.72;5073520;28;20444;-59
2023/04/26 10:43:12;;;;;;;1.63;1.50;;;;;;;14.68;41.09;100367.81;5073568;28;20113;-56
2023/04/26 10:45:39;;;;;;;2.92;1.17;;;;;;;14.95;39.29;100366.09;5073256;28;20461;-57
2023/04/26 10:48:19;;;;;;;1.30;1.20;;;;;;;14.68;40.51;100354.41;5073355;28;20052;-59
2023/04/26 10:51:17;;;;;;;1.63;1.30;;;;;;;14.72;40.96;100357.50;5073236;28;20070;-58
2023/04/26 10:53:42;;;;;;;2.20;1.50;;;;;;;14.91;39.13;100364.81;5073307;28;20495;-58
2023/04/26 10:56:08;;;;;;;1.92;1.45;;;;;;;14.50;40.02;100348.72;5073235;28;20032;-59
2023/04/26 10:58:34;;;;;;;3.08;1.83;;;;;;;14.72;39.69;100344.91;5072997;28;20039;-60
2023/04/26 11:01:16;;;;;;;3.50;1.50;;;;;;;15.16;39.67;100347.19;5073041;28;20040;-58
2023/04/26 11:04:02;;;;;;;3.05;1.30;;;;;;;15.73;38.49;100345.94;5072823;28;20028;-59
2023/04/26 11:06:50;;;;;;;2.08;1.45;;;;;;;16.21;37.93;100344.94;5065499;28;20044;-59
2023/04/26 11:09:47;;;;;;;;;;;;;;;16.41;36.88;100334.97;5073249;28;20401;-57
2023/04/26 11:12:15;;;;;;;3.42;2.03;;;;;;;16.87;35.93;100325.19;5027976;28;19917;-59
2023/04/26 11:14:41;;;;;;;2.38;1.30;;;;;;;15.89;37.83;100315.16;5072845;28;20119;-59
2023/04/26 11:17:11;;;;;;;3.60;1.80;;;;;;;15.09;40.61;100316.00;5072187;28;20418;-58
2023/04/26 11:19:37;;;;;;;3.53;1.58;;;;;;;15.88;39.62;100318.88;5072707;28;20040;-59
2023/04/26 11:22:06;;;;;;;2.28;1.15;;;;;;;15.56;39.54;100314.28;5072591;28;20032;-58
2023/04/26 11:24:32;;;;;;;1.75;1.20;;;;;;;15.73;41.68;100305.66;5072562;28;20028;-59
2023/04/26 11:26:58;;;;;;;1.67;1.33;;;;;;;16.00;44.47;100302.97;5072308;28;20029;-59
2023/04/26 11:29:24;;;;;;;2.20;1.50;;;;;;;16.58;40.23;100307.66;5072454;28;20519;-58
2023/04/26 11:31:56;;;;;;;2.35;1.15;;;;;;;16.28;38.47;100292.81;5072094;28;20458;-59
2023/04/26 11:34:30;;;;;;;1.77;1.40;;;;;;;16.77;38.64;100294.19;5072446;28;20501;-59
2023/04/26 11:36:55;;;;;;;2.85;1.38;;;;;;;16.03;38.90;100289.13;5072178;28;20036;-58
2023/04/26 11:39:21;;;;;;;2.28;1.02;;;;;;;16.72;37.94;100285.91;5072340;28;20078;-58
2023/04/26 11:41:47;;;;;;;4.07;1.50;;;;;;;16.84;38.16;100294.16;5072334;28;20044;-59
2023/04/26 11:44:20;;;;;;;2.65;1.42;;;;;;;16.69;35.99;100293.53;5071072;28;20131;-59
2023/04/26 11:46:49;;;;;;;3.97;1.42;;;;;;;17.30;36.37;100290.41;5072147;28;20539;-58
2023/04/26 11:49:16;;;;;;;2.63;1.48;;;;;;;17.01;35.84;100291.78;5071974;28;20040;-60
2023/04/26 11:51:41;;;;;;;1.73;1.30;;;;;;;17.49;37.17;100284.09;5072113;28;20489;-60
2023/04/26 11:54:07;;;;;;;2.33;1.70;;;;;;;16.54;35.05;100274.97;5072206;28;20040;-58
2023/04/26 11:56:32;;;;;;;2.55;1.50;;;;;;;17.32;36.38;100283.75;5072052;28;20529;-59
2023/04/26 11:58:58;;;;;;;2.22;1.58;;;;;;;17.67;36.28;100282.50;5071826;28;20427;-60
2023/04/26 12:01:29;;;;;;;2.33;1.30;;;;;;;17.60;39.15;100283.41;5072084;28;20131;-57
2023/04/26 12:03:56;;;;;;;1.65;1.30;;;;;;;17.48;36.50;100293.22;5072017;28;20039;-59
2023/04/26 12:06:33;;;;;;;1.60;1.35;;;;;;;17.62;36.02;100292.06;5072028;28;20044;-60
2023/04/26 12:09:01;;;;;;;1.65;1.33;;;;;;;17.44;39.95;100293.84;5071790;28;20422;-59
2023/04/26 12:11:27;;;;;;;3.00;1.33;;;;;;;17.08;37.18;100288.06;5072013;28;20032;-59
2023/04/26 12:13:52;;;;;;;3.30;1.40;;;;;;;17.23;39.38;100276.19;5071854;28;20037;-59
2023/04/26 12:16:18;;;;;;;2.60;1.63;;;;;;;17.43;37.22;100276.06;5071822;28;20044;-58
2023/04/26 12:18:50;;;;;;;1.23;1.10;;;;;;;18.03;37.13;100285.34;5071520;28;20089;-59
2023/04/26 12:21:16;;;;;;;3.60;1.23;;;;;;;18.04;36.42;100275.38;5071873;28;20028;-58
2023/04/26 12:23:41;;;;;;;3.50;1.20;;;;;;;17.43;37.06;100276.88;5071837;28;20041;-59
2023/04/26 12:26:09;;;;;;;3.90;1.45;;;;;;;17.59;39.53;100275.50;5071799;28;20397;-60
2023/04/26 12:28:35;;;;;;;2.90;1.38;;;;;;;16.89;35.76;100272.84;5071465;28;20094;-57
2023/04/26 12:31:02;;;;;;;1.10;1.00;;;;;;;15.97;37.42;100271.13;5072658;28;20044;-62
2023/04/26 12:33:27;;;;;;;1.80;1.10;;;;;;;16.38;39.09;100270.06;5071733;28;20040;-58
2023/04/26 12:35:53;;;;;;;1.27;1.17;;;;;;;16.51;38.53;100260.09;5071631;28;20178;-59
2023/04/26 12:38:18;;;;;;;2.28;1.58;;;;;;;16.63;37.90;100268.34;5071371;28;20039;-58
2023/04/26 12:40:44;;;;;;;2.90;1.30;;;;;;;16.96;37.51;100262.03;5071716;28;20036;-59
2023/04/26 12:43:10;;;;;;;1.67;1.13;;;;;;;17.45;37.52;100263.19;5073618;28;20042;-59
2023/04/26 12:45:35;;;;;;;2.10;1.30;;;;;;;17.72;37.05;100267.34;5075486;28;20036;-59
2023/04/26 12:48:01;;;;;;;3.10;1.23;;;;;;;18.09;37.17;100264.78;5075440;28;20036;-60
2023/04/26 12:50:26;;;;;;;3.77;1.60;;;;;;;17.60;34.19;100258.31;5075547;28;20044;-53
2023/04/26 12:52:52;;;;;;;1.73;1.23;;;;;;;18.17;36.86;100267.19;5075512;28;20047;-57
2023/04/26 12:55:18;;;;;;;3.55;1.30;;;;;;;18.77;36.12;100269.25;5075447;28;20067;-53
2023/04/26 12:57:44;;;;;;;2.25;1.30;;;;;;;17.84;33.27;100267.47;5075067;28;20051;-55
2023/04/26 13:00:12;;;;;;;3.88;1.30;;;;;;;18.60;36.43;100263.63;5075389;28;20037;-56
2023/04/26 13:02:38;;;;;;;2.63;1.20;;;;;;;18.07;36.11;100258.78;5075206;28;20397;-55
2023/04/26 13:05:05;;;;;;;1.83;1.30;;;;;;;18.82;35.42;100250.50;5075303;28;20036;-55
2023/04/26 13:07:35;;;;;;;1.50;0.98;;;;;;;19.70;33.35;100266.94;5074880;28;20032;-55
2023/04/26 13:10:02;;;;;;;3.35;1.40;;;;;;;19.65;31.55;100261.41;5075153;28;20040;-56
2023/04/26 13:12:28;;;;;;;1.50;1.05;;;;;;;19.82;33.99;100269.63;5075051;28;20043;-52
2023/04/26 13:14:53;;;;;;;2.20;1.50;;;;;;;19.13;31.01;100262.97;5074972;28;20024;-56
2023/04/26 13:17:20;;;;;;;5.20;1.83;;;;;;;18.50;32.44;100252.53;5074684;28;20032;-56
2023/04/26 13:19:46;;;;;;;3.03;1.27;;;;;;;20.15;31.75;100250.16;5075005;28;20059;-57
2023/04/26 13:22:12;;;;;;;1.20;1.00;;;;;;;20.71;31.64;100248.66;5074832;28;20474;-56
2023/04/26 13:24:38;;;;;;;1.67;1.20;;;;;;;20.82;31.84;100255.94;5075092;28;20440;-54
2023/04/26 13:27:03;;;;;;;1.80;1.20;;;;;;;21.95;30.07;100259.59;5074475;28;20048;-56
2023/04/26 13:29:30;;;;;;;4.13;1.33;;;;;;;21.27;31.04;100249.75;5074644;28;20039;-55
2023/04/26 13:31:58;;;;;;;3.05;1.42;;;;;;;21.34;31.86;100246.94;5074627;28;20091;-56
2023/04/26 13:34:24;;;;;;;1.40;0.90;;;;;;;21.69;31.08;100252.13;5074752;28;20081;-53
2023/04/26 13:36:51;;;;;;;1.38;1.17;;;;;;;20.98;30.64;100251.63;5074476;28;20050;-56
2023/04/26 13:39:16;;;;;;;1.23;1.10;;;;;;;19.95;30.78;100250.50;5074618;28;20115;-52
2023/04/26 13:41:42;;;;;;;1.83;1.20;;;;;;;19.43;31.93;100244.88;5074650;28;20119;-53
2023/04/26 13:44:07;;;;;;;3.15;1.30;;;;;;;18.18;33.92;100240.00;5074491;28;20040;-52
2023/04/26 13:46:33;;;;;;;1.77;0.90;;;;;;;18.29;36.45;100237.63;5074432;28;20040;-52
2023/04/26 13:48:58;;;;;;;1.48;1.00;;;;;;;17.36;33.71;100238.41;5074155;28;20044;-54
2023/04/26 13:51:24;;;;;;;4.93;1.10;;;;;;;17.42;36.00;100240.22;5074373;28;20049;-57
2023/04/26 13:53:50;;;;;;;1.95;1.05;;;;;;;17.23;38.56;100246.56;5073887;28;20052;-53
2023/04/26 13:56:16;;;;;;;3.60;1.50;;;;;;;17.27;38.37;100243.19;5074310;28;20047;-56
2023/04/26 13:58:43;;;;;;;2.30;1.17;;;;;;;17.51;36.47;100243.47;5073899;28;20036;-56
2023/04/26 14:01:08;;;;;;;1.58;1.13;;;;;;;16.87;36.87;100233.72;5074502;28;20382;-54
2023/04/26 14:03:34;;;;;;;1.60;1.20;;;;;;;16.60;41.41;100230.28;5074211;28;20048;-54
2023/04/26 14:06:01;;;;;;;2.90;1.58;;;;;;;17.08;35.54;100223.47;5073946;28;20040;-56
2023/04/26 14:08:27;;;;;;;4.57;1.42;;;;;;;15.26;37.19;100234.13;5073819;28;20119;-54
2023/04/26 14:10:52;;;;;;;1.30;1.20;;;;;;;15.21;38.70;100228.53;5074478;28;20167;-57
2023/04/26 14:13:18;;;;;;;1.83;1.10;;;;;;;15.13;38.88;100234.09;5073943;28;20547;-53
2023/04/26 14:15:43;;;;;;;2.67;1.33;;;;;;;14.73;39.40;100233.13;5073737;28;20036;-56
2023/04/26 14:18:08;;;;;;;1.45;1.10;;;;;;;14.95;38.90;100232.00;5073638;28;20382;-55
2023/04/26 14:20:34;;;;;;;2.80;1.50;;;;;;;15.09;40.25;100227.47;5073788;28;20123;-53
2023/04/26 14:23:00;;;;;;;4.03;1.40;;;;;;;15.01;38.77;100230.38;5073884;28;20043;-56
2023/04/26 14:25:26;;;;;;;1.95;1.08;;;;;;;15.47;39.24;100236.63;5073757;28;20045;-53
2023/04/26 14:27:52;;;;;;;1.25;1.02;;;;;;;15.15;39.47;100230.19;5073356;28;20174;-55
2023/04/26 14:30:18;;;;;;;2.78;1.20;;;;;;;14.76;39.61;100235.44;5073733;28;20039;-55
2023/04/26 14:32:44;;;;;;;5.72;2.00;;;;;;;14.84;39.82;100245.97;5073593;28;20440;-57
2023/04/26 14:35:09;;;;;;;1.75;1.08;;;;;;;14.83;40.26;100241.66;5073473;28;20036;-57
2023/04/26 14:37:35;;;;;;;2.40;1.30;;;;;;;14.72;40.59;100234.16;5073317;28;20082;-58
2023/04/26 14:40:01;;;;;;;2.20;1.38;;;;;;;14.57;39.46;100234.31;5073620;28;20070;-57
2023/04/26 14:42:26;;;;;;;3.40;1.13;;;;;;;14.06;39.44;100229.25;5073347;28;20028;-57
2023/04/26 14:44:52;;;;;;;3.17;1.45;;;;;;;14.02;40.28;100230.69;5073418;28;20036;-58
2023/04/26 14:47:17;;;;;;;1.50;1.15;;;;;;;14.13;39.66;100228.28;5073076;28;20045;-57
2023/04/26 14:49:42;;;;;;;2.08;1.13;;;;;;;14.15;40.20;100225.44;5073354;28;20134;-57
2023/04/26 14:52:08;;;;;;;1.67;1.23;;;;;;;13.64;40.91;100222.19;5073147;28;20064;-55
2023/04/26 14:54:40;;;;;;;1.33;1.05;;;;;;;14.18;42.26;100213.47;5073260;28;20101;-55
2023/04/26 14:57:06;;;;;;;4.63;1.65;;;;;;;14.54;41.78;100215.94;5072595;28;20075;-56
2023/04/26 14:59:32;;;;;;;1.77;1.02;;;;;;;14.82;41.14;100205.97;5073035;28;20060;-56
2023/04/26 15:01:58;;;;;;;1.75;1.25;;;;;;;14.75;39.04;100218.53;5072968;28;20121;-58
2023/04/26 15:04:23;;;;;;;1.63;1.23;;;;;;;14.94;39.04;100219.63;5072885;28;20116;-56
2023/04/26 15:06:48;;;;;;;1.70;1.00;;;;;;;14.99;39.40;100216.31;5072387;28;20477;-55
2023/04/26 15:09:14;;;;;;;6.32;1.55;;;;;;;15.07;39.27;100216.13;5072742;28;20432;-56
2023/04/26 15:11:39;;;;;;;1.95;1.25;;;;;;;14.72;38.99;100215.41;5072740;28;20033;-54
2023/04/26 15:14:05;;;;;;;1.55;1.38;;;;;;;14.73;38.89;100212.50;5072993;28;20032;-57
2023/04/26 15:16:30;;;;;;;1.35;1.20;;;;;;;14.56;39.74;100224.63;5072711;28;20128;-57
2023/04/26 15:18:55;;;;;;;1.70;1.20;;;;;;;14.86;39.18;100212.56;5072421;28;20036;-56
2023/04/26 15:21:21;;;;;;;2.42;1.35;;;;;;;14.48;39.44;100208.72;5071522;28;20399;-57
2023/04/26 15:23:46;;;;;;;3.75;1.30;;;;;;;14.33;40.06;100211.50;5072667;28;20040;-54
2023/04/26 15:26:12;;;;;;;1.42;1.33;;;;;;;14.63;39.79;100207.53;5072200;28;20024;-57
2023/04/26 15:28:38;;;;;;;1.65;1.10;;;;;;;14.69;40.03;100205.91;5071623;28;20072;-56
2023/04/26 15:31:06;;;;;;;1.30;0.98;;;;;;;14.89;39.32;100206.81;5071366;28;20075;-55
2023/04/26 15:33:31;;;;;;;2.92;1.35;;;;;;;14.83;39.71;100202.25;5072381;28;20050;-57
2023/04/26 15:35:57;;;;;;;2.50;1.42;;;;;;;14.63;39.55;100212.91;5072299;28;20115;-58
2023/04/26 15:38:22;;;;;;;1.85;1.35;;;;;;;14.90;38.32;100205.78;5072570;28;20048;-57
2023/04/26 15:40:49;;;;;;;2.58;1.35;;;;;;;14.86;38.60;100214.41;5072347;28;20108;-53
2023/04/26 15:43:15;;;;;;;1.98;1.17;;;;;;;14.76;38.59;100201.41;5072264;28;20397;-56
2023/04/26 15:45:40;;;;;;;1.98;1.13;;;;;;;14.87;38.40;100205.38;5072123;28;20040;-57
2023/04/26 15:48:06;;;;;;;1.20;1.00;;;;;;;14.65;38.78;100194.75;5072011;28;20040;-54